sensor_id;sensor_type;location;lat;lon;timestamp;P1;durP1;ratioP1;P2;durP2;ratioP2
68579;SDS011;55555;52.136;5.424;2022-10-26T00:01:11;19.83;;;8.98;;
68579;SDS011;55555;52.136;5.424;2022-10-26T00:03:41;16.77;;;9.35;;
68579;SDS011;55555;52.136;5.424;2022-10-26T00:06:14;18.33;;;8.97;;
68579;SDS011;55555;52.136;5.424;2022-10-26T00:08:44;16.25;;;9.18;;
68579;SDS011;55555;52.136;5.424;2022-10-26T00:11:12;17.27;;;9.68;;
68579;SDS011;55555;52.136;5.424;2022-10-26T00:13:40;26.98;;;10.27;;
68579;SDS011;55555;52.136;5.424;2022-10-26T00:16:08;18.00;;;10.20;;
68579;SDS011;55555;52.136;5.424;2022-10-26T00:18:38;17.43;;;9.07;;
68579;SDS011;55555;52.136;5.424;2022-10-26T00:21:05;16.83;;;9.55;;
68579;SDS011;55555;52.136;5.424;2022-10-26T00:23:34;21.38;;;9.27;;
68579;SDS011;55555;52.136;5.424;2022-10-26T00:26:02;18.40;;;9.07;;
68579;SDS011;55555;52.136;5.424;2022-10-26T00:28:29;17.23;;;9.80;;
68579;SDS011;55555;52.136;5.424;2022-10-26T00:31:00;17.40;;;9.70;;
68579;SDS011;55555;52.136;5.424;2022-10-26T00:33:38;15.45;;;9.02;;
68579;SDS011;55555;52.136;5.424;2022-10-26T00:36:05;19.17;;;9.82;;
68579;SDS011;55555;52.136;5.424;2022-10-26T00:38:35;15.35;;;8.45;;
68579;SDS011;55555;52.136;5.424;2022-10-26T00:41:02;17.80;;;9.10;;
68579;SDS011;55555;52.136;5.424;2022-10-26T00:45:57;17.98;;;9.27;;
68579;SDS011;55555;52.136;5.424;2022-10-26T00:48:26;21.23;;;9.95;;
68579;SDS011;55555;52.136;5.424;2022-10-26T00:50:58;19.00;;;9.65;;
68579;SDS011;55555;52.136;5.424;2022-10-26T00:53:29;19.73;;;10.07;;
68579;SDS011;55555;52.136;5.424;2022-10-26T00:55:58;18.47;;;9.93;;
68579;SDS011;55555;52.136;5.424;2022-10-26T00:58:26;19.80;;;9.23;;
68579;SDS011;55555;52.136;5.424;2022-10-26T01:00:54;16.20;;;8.45;;
68579;SDS011;55555;52.136;5.424;2022-10-26T01:03:21;17.20;;;8.95;;
68579;SDS011;55555;52.136;5.424;2022-10-26T01:05:50;17.55;;;8.52;;
68579;SDS011;55555;52.136;5.424;2022-10-26T01:08:21;15.83;;;9.53;;
68579;SDS011;55555;52.136;5.424;2022-10-26T01:10:49;17.73;;;8.55;;
68579;SDS011;55555;52.136;5.424;2022-10-26T01:13:17;16.35;;;8.70;;
68579;SDS011;55555;52.136;5.424;2022-10-26T01:15:55;17.27;;;8.88;;
68579;SDS011;55555;52.136;5.424;2022-10-26T01:18:46;21.75;;;9.45;;
68579;SDS011;55555;52.136;5.424;2022-10-26T01:22:19;18.40;;;8.73;;
68579;SDS011;55555;52.136;5.424;2022-10-26T01:25:00;17.27;;;8.07;;
68579;SDS011;55555;52.136;5.424;2022-10-26T01:27:49;17.42;;;8.85;;
68579;SDS011;55555;52.136;5.424;2022-10-26T01:33:30;16.88;;;9.23;;
68579;SDS011;55555;52.136;5.424;2022-10-26T01:36:41;15.10;;;8.57;;
68579;SDS011;55555;52.136;5.424;2022-10-26T01:39:43;17.75;;;8.50;;
68579;SDS011;55555;52.136;5.424;2022-10-26T01:42:07;15.80;;;7.55;;
68579;SDS011;55555;52.136;5.424;2022-10-26T01:44:40;17.02;;;8.50;;
68579;SDS011;55555;52.136;5.424;2022-10-26T01:47:13;16.45;;;8.18;;
68579;SDS011;55555;52.136;5.424;2022-10-26T01:49:44;17.73;;;8.70;;
68579;SDS011;55555;52.136;5.424;2022-10-26T01:52:16;16.17;;;8.98;;
68579;SDS011;55555;52.136;5.424;2022-10-26T01:54:44;15.88;;;8.65;;
68579;SDS011;55555;52.136;5.424;2022-10-26T01:57:12;19.63;;;9.05;;
68579;SDS011;55555;52.136;5.424;2022-10-26T02:05:52;13.80;;;8.00;;
68579;SDS011;55555;52.136;5.424;2022-10-26T02:19:52;16.73;;;8.13;;
68579;SDS011;55555;52.136;5.424;2022-10-26T02:22:28;16.83;;;8.23;;
68579;SDS011;55555;52.136;5.424;2022-10-26T02:25:15;14.05;;;7.82;;
68579;SDS011;55555;52.136;5.424;2022-10-26T02:28:06;14.35;;;8.20;;
68579;SDS011;55555;52.136;5.424;2022-10-26T02:30:39;20.17;;;8.47;;
68579;SDS011;55555;52.136;5.424;2022-10-26T02:33:08;18.23;;;8.70;;
68579;SDS011;55555;52.136;5.424;2022-10-26T02:35:38;16.20;;;8.70;;
68579;SDS011;55555;52.136;5.424;2022-10-26T02:38:10;16.88;;;8.52;;
68579;SDS011;55555;52.136;5.424;2022-10-26T02:40:38;16.85;;;9.02;;
68579;SDS011;55555;52.136;5.424;2022-10-26T02:43:09;19.63;;;8.90;;
68579;SDS011;55555;52.136;5.424;2022-10-26T02:45:42;15.77;;;8.35;;
68579;SDS011;55555;52.136;5.424;2022-10-26T02:48:17;12.75;;;7.90;;
68579;SDS011;55555;52.136;5.424;2022-10-26T02:50:59;17.75;;;7.75;;
68579;SDS011;55555;52.136;5.424;2022-10-26T02:53:30;15.00;;;8.05;;
68579;SDS011;55555;52.136;5.424;2022-10-26T02:56:07;14.77;;;8.00;;
68579;SDS011;55555;52.136;5.424;2022-10-26T02:58:46;16.52;;;8.55;;
68579;SDS011;55555;52.136;5.424;2022-10-26T03:01:27;14.45;;;7.72;;
68579;SDS011;55555;52.136;5.424;2022-10-26T03:03:58;16.13;;;7.88;;
68579;SDS011;55555;52.136;5.424;2022-10-26T03:06:25;16.17;;;7.97;;
68579;SDS011;55555;52.136;5.424;2022-10-26T03:08:52;13.93;;;7.13;;
68579;SDS011;55555;52.136;5.424;2022-10-26T03:11:20;17.90;;;7.82;;
68579;SDS011;55555;52.136;5.424;2022-10-26T03:13:46;14.35;;;8.18;;
68579;SDS011;55555;52.136;5.424;2022-10-26T03:16:13;20.15;;;8.02;;
68579;SDS011;55555;52.136;5.424;2022-10-26T03:18:40;18.70;;;7.93;;
68579;SDS011;55555;52.136;5.424;2022-10-26T03:21:07;21.20;;;7.70;;
68579;SDS011;55555;52.136;5.424;2022-10-26T03:23:34;14.27;;;7.55;;
68579;SDS011;55555;52.136;5.424;2022-10-26T03:26:01;16.67;;;8.57;;
68579;SDS011;55555;52.136;5.424;2022-10-26T03:28:28;14.38;;;7.25;;
68579;SDS011;55555;52.136;5.424;2022-10-26T03:30:55;13.02;;;7.20;;
68579;SDS011;55555;52.136;5.424;2022-10-26T03:33:22;17.40;;;7.20;;
68579;SDS011;55555;52.136;5.424;2022-10-26T03:35:53;17.92;;;7.60;;
68579;SDS011;55555;52.136;5.424;2022-10-26T03:38:21;16.00;;;8.20;;
68579;SDS011;55555;52.136;5.424;2022-10-26T03:40:49;16.08;;;7.32;;
68579;SDS011;55555;52.136;5.424;2022-10-26T03:43:16;14.52;;;7.95;;
68579;SDS011;55555;52.136;5.424;2022-10-26T03:45:43;15.33;;;7.53;;
68579;SDS011;55555;52.136;5.424;2022-10-26T03:48:11;15.25;;;7.68;;
68579;SDS011;55555;52.136;5.424;2022-10-26T03:50:38;17.23;;;7.93;;
68579;SDS011;55555;52.136;5.424;2022-10-26T03:53:05;17.65;;;7.43;;
68579;SDS011;55555;52.136;5.424;2022-10-26T03:55:32;22.98;;;8.00;;
68579;SDS011;55555;52.136;5.424;2022-10-26T03:57:59;14.47;;;7.23;;
68579;SDS011;55555;52.136;5.424;2022-10-26T04:00:26;15.77;;;6.88;;
68579;SDS011;55555;52.136;5.424;2022-10-26T04:02:55;16.63;;;7.78;;
68579;SDS011;55555;52.136;5.424;2022-10-26T04:05:25;14.10;;;7.38;;
68579;SDS011;55555;52.136;5.424;2022-10-26T04:10:26;21.30;;;7.70;;
68579;SDS011;55555;52.136;5.424;2022-10-26T04:12:54;17.65;;;7.55;;
68579;SDS011;55555;52.136;5.424;2022-10-26T04:15:22;16.52;;;8.00;;
68579;SDS011;55555;52.136;5.424;2022-10-26T04:17:55;16.08;;;7.68;;
68579;SDS011;55555;52.136;5.424;2022-10-26T04:20:24;14.82;;;7.50;;
68579;SDS011;55555;52.136;5.424;2022-10-26T04:22:57;17.17;;;7.53;;
68579;SDS011;55555;52.136;5.424;2022-10-26T04:25:45;16.60;;;7.80;;
68579;SDS011;55555;52.136;5.424;2022-10-26T04:28:12;16.90;;;8.30;;
68579;SDS011;55555;52.136;5.424;2022-10-26T04:30:40;14.18;;;7.45;;
68579;SDS011;55555;52.136;5.424;2022-10-26T04:33:07;13.70;;;7.57;;
68579;SDS011;55555;52.136;5.424;2022-10-26T04:35:34;18.50;;;7.23;;
68579;SDS011;55555;52.136;5.424;2022-10-26T04:38:02;15.27;;;8.43;;
68579;SDS011;55555;52.136;5.424;2022-10-26T04:40:31;18.85;;;8.32;;
68579;SDS011;55555;52.136;5.424;2022-10-26T04:43:00;16.20;;;7.78;;
68579;SDS011;55555;52.136;5.424;2022-10-26T04:45:27;15.38;;;7.78;;
68579;SDS011;55555;52.136;5.424;2022-10-26T04:47:59;17.57;;;7.57;;
68579;SDS011;55555;52.136;5.424;2022-10-26T04:50:29;14.82;;;7.70;;
68579;SDS011;55555;52.136;5.424;2022-10-26T04:52:57;17.73;;;8.38;;
68579;SDS011;55555;52.136;5.424;2022-10-26T04:55:24;18.88;;;7.40;;
68579;SDS011;55555;52.136;5.424;2022-10-26T04:57:51;13.52;;;8.00;;
68579;SDS011;55555;52.136;5.424;2022-10-26T05:00:23;14.67;;;7.27;;
68579;SDS011;55555;52.136;5.424;2022-10-26T05:02:51;18.63;;;7.90;;
68579;SDS011;55555;52.136;5.424;2022-10-26T05:05:28;18.30;;;8.13;;
68579;SDS011;55555;52.136;5.424;2022-10-26T05:07:57;14.25;;;7.88;;
68579;SDS011;55555;52.136;5.424;2022-10-26T05:10:25;24.00;;;9.15;;
68579;SDS011;55555;52.136;5.424;2022-10-26T05:12:52;17.23;;;7.57;;
68579;SDS011;55555;52.136;5.424;2022-10-26T05:15:21;15.70;;;8.40;;
68579;SDS011;55555;52.136;5.424;2022-10-26T05:17:59;17.30;;;7.90;;
68579;SDS011;55555;52.136;5.424;2022-10-26T05:20:31;20.88;;;8.38;;
68579;SDS011;55555;52.136;5.424;2022-10-26T05:23:01;18.33;;;7.65;;
68579;SDS011;55555;52.136;5.424;2022-10-26T05:25:35;19.77;;;7.83;;
68579;SDS011;55555;52.136;5.424;2022-10-26T05:28:04;12.95;;;7.40;;
68579;SDS011;55555;52.136;5.424;2022-10-26T05:30:34;16.90;;;7.43;;
68579;SDS011;55555;52.136;5.424;2022-10-26T05:33:02;14.73;;;7.55;;
68579;SDS011;55555;52.136;5.424;2022-10-26T05:35:29;16.48;;;8.40;;
68579;SDS011;55555;52.136;5.424;2022-10-26T05:37:57;16.63;;;7.53;;
68579;SDS011;55555;52.136;5.424;2022-10-26T05:40:24;16.55;;;7.93;;
68579;SDS011;55555;52.136;5.424;2022-10-26T05:42:52;12.80;;;7.88;;
68579;SDS011;55555;52.136;5.424;2022-10-26T05:45:19;15.52;;;7.43;;
68579;SDS011;55555;52.136;5.424;2022-10-26T05:47:46;15.88;;;8.25;;
68579;SDS011;55555;52.136;5.424;2022-10-26T05:50:13;18.53;;;8.30;;
68579;SDS011;55555;52.136;5.424;2022-10-26T05:52:41;18.65;;;9.05;;
68579;SDS011;55555;52.136;5.424;2022-10-26T05:55:11;16.67;;;8.10;;
68579;SDS011;55555;52.136;5.424;2022-10-26T05:57:41;14.80;;;7.35;;
68579;SDS011;55555;52.136;5.424;2022-10-26T06:00:10;16.85;;;8.23;;
68579;SDS011;55555;52.136;5.424;2022-10-26T06:05:54;20.10;;;8.68;;
68579;SDS011;55555;52.136;5.424;2022-10-26T06:08:25;18.02;;;8.05;;
68579;SDS011;55555;52.136;5.424;2022-10-26T06:10:55;17.80;;;7.57;;
68579;SDS011;55555;52.136;5.424;2022-10-26T06:13:26;15.98;;;7.25;;
68579;SDS011;55555;52.136;5.424;2022-10-26T06:16:19;18.53;;;7.63;;
68579;SDS011;55555;52.136;5.424;2022-10-26T06:30:59;16.07;;;7.47;;
68579;SDS011;55555;52.136;5.424;2022-10-26T06:33:26;21.45;;;7.85;;
68579;SDS011;55555;52.136;5.424;2022-10-26T06:35:59;15.52;;;7.68;;
68579;SDS011;55555;52.136;5.424;2022-10-26T06:38:44;19.88;;;7.47;;
68579;SDS011;55555;52.136;5.424;2022-10-26T06:41:15;14.52;;;7.20;;
68579;SDS011;55555;52.136;5.424;2022-10-26T06:43:44;17.33;;;7.37;;
68579;SDS011;55555;52.136;5.424;2022-10-26T06:49:17;16.02;;;7.50;;
68579;SDS011;55555;52.136;5.424;2022-10-26T06:57:20;17.77;;;7.80;;
68579;SDS011;55555;52.136;5.424;2022-10-26T06:59:50;14.48;;;7.03;;
68579;SDS011;55555;52.136;5.424;2022-10-26T07:02:21;17.13;;;7.88;;
68579;SDS011;55555;52.136;5.424;2022-10-26T07:04:48;14.95;;;6.72;;
68579;SDS011;55555;52.136;5.424;2022-10-26T07:07:21;16.45;;;8.07;;
68579;SDS011;55555;52.136;5.424;2022-10-26T07:09:51;15.87;;;7.90;;
68579;SDS011;55555;52.136;5.424;2022-10-26T07:12:18;15.82;;;7.57;;
68579;SDS011;55555;52.136;5.424;2022-10-26T07:14:45;15.35;;;7.43;;
68579;SDS011;55555;52.136;5.424;2022-10-26T07:17:13;14.73;;;7.43;;
68579;SDS011;55555;52.136;5.424;2022-10-26T07:19:40;13.63;;;7.68;;
68579;SDS011;55555;52.136;5.424;2022-10-26T07:22:09;16.90;;;7.90;;
68579;SDS011;55555;52.136;5.424;2022-10-26T07:24:36;17.90;;;7.50;;
68579;SDS011;55555;52.136;5.424;2022-10-26T07:27:03;16.05;;;8.02;;
68579;SDS011;55555;52.136;5.424;2022-10-26T07:29:30;20.13;;;7.25;;
68579;SDS011;55555;52.136;5.424;2022-10-26T07:31:58;16.67;;;7.10;;
68579;SDS011;55555;52.136;5.424;2022-10-26T07:34:25;23.03;;;8.03;;
68579;SDS011;55555;52.136;5.424;2022-10-26T07:36:52;16.63;;;7.03;;
68579;SDS011;55555;52.136;5.424;2022-10-26T07:39:19;18.05;;;7.88;;
68579;SDS011;55555;52.136;5.424;2022-10-26T07:41:46;16.73;;;7.38;;
68579;SDS011;55555;52.136;5.424;2022-10-26T07:44:13;14.43;;;7.15;;
68579;SDS011;55555;52.136;5.424;2022-10-26T07:46:40;16.37;;;7.27;;
68579;SDS011;55555;52.136;5.424;2022-10-26T07:49:07;15.65;;;7.18;;
68579;SDS011;55555;52.136;5.424;2022-10-26T07:51:34;13.63;;;6.97;;
68579;SDS011;55555;52.136;5.424;2022-10-26T07:54:01;15.48;;;7.20;;
68579;SDS011;55555;52.136;5.424;2022-10-26T07:56:28;14.48;;;7.43;;
68579;SDS011;55555;52.136;5.424;2022-10-26T07:58:55;14.63;;;7.07;;
68579;SDS011;55555;52.136;5.424;2022-10-26T08:01:23;16.45;;;6.95;;
68579;SDS011;55555;52.136;5.424;2022-10-26T08:03:53;15.30;;;7.07;;
68579;SDS011;55555;52.136;5.424;2022-10-26T08:06:21;13.55;;;6.43;;
68579;SDS011;55555;52.136;5.424;2022-10-26T08:08:49;15.55;;;6.95;;
68579;SDS011;55555;52.136;5.424;2022-10-26T08:11:17;15.57;;;6.07;;
68579;SDS011;55555;52.136;5.424;2022-10-26T08:13:44;13.45;;;7.32;;
68579;SDS011;55555;52.136;5.424;2022-10-26T08:16:11;15.13;;;6.55;;
68579;SDS011;55555;52.136;5.424;2022-10-26T08:18:38;15.10;;;6.43;;
68579;SDS011;55555;52.136;5.424;2022-10-26T08:21:06;14.02;;;6.15;;
68579;SDS011;55555;52.136;5.424;2022-10-26T08:23:51;12.03;;;6.23;;
68579;SDS011;55555;52.136;5.424;2022-10-26T08:26:18;10.07;;;5.57;;
68579;SDS011;55555;52.136;5.424;2022-10-26T08:28:47;11.60;;;6.28;;
68579;SDS011;55555;52.136;5.424;2022-10-26T08:31:15;10.50;;;5.38;;
68579;SDS011;55555;52.136;5.424;2022-10-26T08:33:42;14.68;;;5.90;;
68579;SDS011;55555;52.136;5.424;2022-10-26T08:36:10;11.13;;;5.37;;
68579;SDS011;55555;52.136;5.424;2022-10-26T08:38:38;10.25;;;5.28;;
68579;SDS011;55555;52.136;5.424;2022-10-26T08:41:06;12.45;;;5.07;;
68579;SDS011;55555;52.136;5.424;2022-10-26T08:46:19;13.18;;;4.40;;
68579;SDS011;55555;52.136;5.424;2022-10-26T08:48:53;12.23;;;4.90;;
68579;SDS011;55555;52.136;5.424;2022-10-26T08:51:44;10.02;;;4.95;;
68579;SDS011;55555;52.136;5.424;2022-10-26T08:54:49;10.63;;;4.60;;
68579;SDS011;55555;52.136;5.424;2022-10-26T08:59:54;14.05;;;5.45;;
68579;SDS011;55555;52.136;5.424;2022-10-26T09:02:26;9.03;;;5.00;;
68579;SDS011;55555;52.136;5.424;2022-10-26T09:04:54;9.98;;;4.80;;
68579;SDS011;55555;52.136;5.424;2022-10-26T09:13:31;11.43;;;4.93;;
68579;SDS011;55555;52.136;5.424;2022-10-26T09:25:17;11.98;;;5.60;;
68579;SDS011;55555;52.136;5.424;2022-10-26T09:27:57;11.82;;;5.82;;
68579;SDS011;55555;52.136;5.424;2022-10-26T09:30:27;11.17;;;5.83;;
68579;SDS011;55555;52.136;5.424;2022-10-26T09:32:58;11.98;;;5.00;;
68579;SDS011;55555;52.136;5.424;2022-10-26T09:35:50;12.93;;;5.40;;
68579;SDS011;55555;52.136;5.424;2022-10-26T09:44:10;9.10;;;4.47;;
68579;SDS011;55555;52.136;5.424;2022-10-26T09:52:54;10.75;;;4.03;;
68579;SDS011;55555;52.136;5.424;2022-10-26T09:55:21;12.52;;;4.05;;
68579;SDS011;55555;52.136;5.424;2022-10-26T09:57:51;11.20;;;3.60;;
68579;SDS011;55555;52.136;5.424;2022-10-26T10:00:24;10.10;;;3.97;;
68579;SDS011;55555;52.136;5.424;2022-10-26T10:02:53;12.18;;;4.88;;
68579;SDS011;55555;52.136;5.424;2022-10-26T10:05:34;9.30;;;3.70;;
68579;SDS011;55555;52.136;5.424;2022-10-26T10:08:25;12.15;;;4.20;;
68579;SDS011;55555;52.136;5.424;2022-10-26T10:10:53;8.33;;;3.27;;
68579;SDS011;55555;52.136;5.424;2022-10-26T10:13:43;9.63;;;3.45;;
68579;SDS011;55555;52.136;5.424;2022-10-26T10:16:18;9.57;;;3.28;;
68579;SDS011;55555;52.136;5.424;2022-10-26T10:18:55;9.15;;;3.72;;
68579;SDS011;55555;52.136;5.424;2022-10-26T10:24:22;10.13;;;3.30;;
68579;SDS011;55555;52.136;5.424;2022-10-26T10:27:03;9.50;;;3.42;;
68579;SDS011;55555;52.136;5.424;2022-10-26T10:29:42;12.35;;;3.90;;
68579;SDS011;55555;52.136;5.424;2022-10-26T10:32:16;10.52;;;3.83;;
68579;SDS011;55555;52.136;5.424;2022-10-26T10:34:47;8.82;;;3.35;;
68579;SDS011;55555;52.136;5.424;2022-10-26T10:39:59;9.50;;;2.92;;
68579;SDS011;55555;52.136;5.424;2022-10-26T10:42:30;12.32;;;3.65;;
68579;SDS011;55555;52.136;5.424;2022-10-26T10:45:01;10.48;;;3.65;;
68579;SDS011;55555;52.136;5.424;2022-10-26T10:47:30;9.05;;;3.20;;
68579;SDS011;55555;52.136;5.424;2022-10-26T10:50:16;10.37;;;3.53;;
68579;SDS011;55555;52.136;5.424;2022-10-26T10:52:45;10.18;;;3.55;;
68579;SDS011;55555;52.136;5.424;2022-10-26T11:00:36;11.13;;;3.08;;
68579;SDS011;55555;52.136;5.424;2022-10-26T11:06:05;8.73;;;3.22;;
68579;SDS011;55555;52.136;5.424;2022-10-26T11:11:54;11.90;;;3.60;;
68579;SDS011;55555;52.136;5.424;2022-10-26T11:14:28;11.82;;;3.95;;
68579;SDS011;55555;52.136;5.424;2022-10-26T11:17:05;9.53;;;3.43;;
68579;SDS011;55555;52.136;5.424;2022-10-26T11:19:42;7.68;;;3.78;;
68579;SDS011;55555;52.136;5.424;2022-10-26T11:22:19;8.98;;;3.38;;
68579;SDS011;55555;52.136;5.424;2022-10-26T11:24:53;10.20;;;3.50;;
68579;SDS011;55555;52.136;5.424;2022-10-26T11:27:38;11.55;;;4.18;;
68579;SDS011;55555;52.136;5.424;2022-10-26T11:30:19;11.83;;;4.20;;
68579;SDS011;55555;52.136;5.424;2022-10-26T11:41:30;13.10;;;3.70;;
68579;SDS011;55555;52.136;5.424;2022-10-26T11:47:06;8.68;;;3.20;;
68579;SDS011;55555;52.136;5.424;2022-10-26T11:49:41;6.90;;;3.63;;
68579;SDS011;55555;52.136;5.424;2022-10-26T11:52:37;9.88;;;3.47;;
68579;SDS011;55555;52.136;5.424;2022-10-26T11:55:10;7.20;;;3.85;;
68579;SDS011;55555;52.136;5.424;2022-10-26T11:57:37;12.40;;;3.47;;
68579;SDS011;55555;52.136;5.424;2022-10-26T12:00:08;8.60;;;3.30;;
68579;SDS011;55555;52.136;5.424;2022-10-26T12:02:53;10.00;;;3.70;;
68579;SDS011;55555;52.136;5.424;2022-10-26T12:05:35;9.68;;;3.20;;
68579;SDS011;55555;52.136;5.424;2022-10-26T12:11:08;10.27;;;3.57;;
68579;SDS011;55555;52.136;5.424;2022-10-26T12:20:16;10.88;;;2.92;;
68579;SDS011;55555;52.136;5.424;2022-10-26T12:23:10;7.05;;;3.17;;
68579;SDS011;55555;52.136;5.424;2022-10-26T12:26:18;8.73;;;2.90;;
68579;SDS011;55555;52.136;5.424;2022-10-26T12:39:28;10.07;;;3.20;;
68579;SDS011;55555;52.136;5.424;2022-10-26T12:55:22;8.77;;;2.70;;
68579;SDS011;55555;52.136;5.424;2022-10-26T12:58:27;9.90;;;3.33;;
68579;SDS011;55555;52.136;5.424;2022-10-26T13:01:10;11.32;;;3.53;;
68579;SDS011;55555;52.136;5.424;2022-10-26T13:04:07;9.00;;;3.85;;
68579;SDS011;55555;52.136;5.424;2022-10-26T13:09:57;9.32;;;2.95;;
68579;SDS011;55555;52.136;5.424;2022-10-26T13:17:52;6.90;;;3.30;;
68579;SDS011;55555;52.136;5.424;2022-10-26T13:20:23;10.70;;;3.87;;
68579;SDS011;55555;52.136;5.424;2022-10-26T13:22:51;7.30;;;3.25;;
68579;SDS011;55555;52.136;5.424;2022-10-26T13:25:23;10.18;;;3.63;;
68579;SDS011;55555;52.136;5.424;2022-10-26T13:33:58;11.87;;;3.73;;
68579;SDS011;55555;52.136;5.424;2022-10-26T13:36:39;10.48;;;3.30;;
68579;SDS011;55555;52.136;5.424;2022-10-26T13:39:15;9.95;;;3.58;;
68579;SDS011;55555;52.136;5.424;2022-10-26T13:41:53;11.68;;;3.38;;
68579;SDS011;55555;52.136;5.424;2022-10-26T13:44:43;8.23;;;3.58;;
68579;SDS011;55555;52.136;5.424;2022-10-26T13:47:24;9.63;;;3.30;;
68579;SDS011;55555;52.136;5.424;2022-10-26T13:50:15;12.77;;;3.85;;
68579;SDS011;55555;52.136;5.424;2022-10-26T13:52:49;11.60;;;4.03;;
68579;SDS011;55555;52.136;5.424;2022-10-26T13:55:27;9.38;;;3.85;;
68579;SDS011;55555;52.136;5.424;2022-10-26T13:58:01;12.18;;;4.07;;
68579;SDS011;55555;52.136;5.424;2022-10-26T14:03:37;9.82;;;3.72;;
68579;SDS011;55555;52.136;5.424;2022-10-26T14:06:05;10.77;;;3.83;;
68579;SDS011;55555;52.136;5.424;2022-10-26T14:08:39;7.68;;;3.58;;
68579;SDS011;55555;52.136;5.424;2022-10-26T14:11:09;7.82;;;3.42;;
68579;SDS011;55555;52.136;5.424;2022-10-26T14:13:40;7.20;;;3.73;;
68579;SDS011;55555;52.136;5.424;2022-10-26T14:16:08;9.48;;;4.10;;
68579;SDS011;55555;52.136;5.424;2022-10-26T14:18:41;10.55;;;4.22;;
68579;SDS011;55555;52.136;5.424;2022-10-26T14:21:18;7.32;;;3.67;;
68579;SDS011;55555;52.136;5.424;2022-10-26T14:23:48;10.23;;;4.43;;
68579;SDS011;55555;52.136;5.424;2022-10-26T14:26:27;10.03;;;4.20;;
68579;SDS011;55555;52.136;5.424;2022-10-26T14:29:13;8.50;;;4.25;;
68579;SDS011;55555;52.136;5.424;2022-10-26T14:31:45;9.88;;;3.80;;
68579;SDS011;55555;52.136;5.424;2022-10-26T14:34:15;9.40;;;3.97;;
68579;SDS011;55555;52.136;5.424;2022-10-26T14:36:54;11.57;;;3.75;;
68579;SDS011;55555;52.136;5.424;2022-10-26T14:39:38;10.93;;;3.73;;
68579;SDS011;55555;52.136;5.424;2022-10-26T14:42:13;9.55;;;3.40;;
68579;SDS011;55555;52.136;5.424;2022-10-26T14:44:52;10.52;;;2.90;;
68579;SDS011;55555;52.136;5.424;2022-10-26T14:47:28;9.82;;;3.50;;
68579;SDS011;55555;52.136;5.424;2022-10-26T14:49:58;6.60;;;2.80;;
68579;SDS011;55555;52.136;5.424;2022-10-26T14:52:30;10.93;;;2.57;;
68579;SDS011;55555;52.136;5.424;2022-10-26T14:55:14;10.30;;;3.00;;
68579;SDS011;55555;52.136;5.424;2022-10-26T14:57:42;9.20;;;2.05;;
68579;SDS011;55555;52.136;5.424;2022-10-26T15:02:46;10.00;;;2.30;;
68579;SDS011;55555;52.136;5.424;2022-10-26T15:08:01;8.75;;;2.13;;
68579;SDS011;55555;52.136;5.424;2022-10-26T15:13:39;7.80;;;2.38;;
68579;SDS011;55555;52.136;5.424;2022-10-26T15:16:17;9.35;;;2.10;;
68579;SDS011;55555;52.136;5.424;2022-10-26T15:18:48;6.97;;;1.73;;
68579;SDS011;55555;52.136;5.424;2022-10-26T15:21:23;6.47;;;2.13;;
68579;SDS011;55555;52.136;5.424;2022-10-26T15:23:55;7.50;;;2.10;;
68579;SDS011;55555;52.136;5.424;2022-10-26T15:26:23;9.55;;;2.55;;
68579;SDS011;55555;52.136;5.424;2022-10-26T15:28:51;9.20;;;2.20;;
68579;SDS011;55555;52.136;5.424;2022-10-26T15:36:19;7.63;;;2.60;;
68579;SDS011;55555;52.136;5.424;2022-10-26T15:38:51;7.43;;;2.60;;
68579;SDS011;55555;52.136;5.424;2022-10-26T15:41:28;6.32;;;2.08;;
68579;SDS011;55555;52.136;5.424;2022-10-26T15:43:58;7.33;;;1.70;;
68579;SDS011;55555;52.136;5.424;2022-10-26T15:46:32;5.35;;;1.80;;
68579;SDS011;55555;52.136;5.424;2022-10-26T15:49:02;6.75;;;2.10;;
68579;SDS011;55555;52.136;5.424;2022-10-26T15:51:31;9.30;;;2.30;;
68579;SDS011;55555;52.136;5.424;2022-10-26T15:54:00;10.25;;;2.40;;
68579;SDS011;55555;52.136;5.424;2022-10-26T15:56:29;9.97;;;2.50;;
68579;SDS011;55555;52.136;5.424;2022-10-26T15:58:57;11.40;;;2.55;;
68579;SDS011;55555;52.136;5.424;2022-10-26T16:01:25;9.65;;;2.47;;
68579;SDS011;55555;52.136;5.424;2022-10-26T16:03:54;7.35;;;2.05;;
68579;SDS011;55555;52.136;5.424;2022-10-26T16:08:56;7.83;;;2.23;;
68579;SDS011;55555;52.136;5.424;2022-10-26T16:11:25;7.15;;;2.00;;
68579;SDS011;55555;52.136;5.424;2022-10-26T16:13:53;7.40;;;2.55;;
68579;SDS011;55555;52.136;5.424;2022-10-26T16:16:26;6.43;;;2.92;;
68579;SDS011;55555;52.136;5.424;2022-10-26T16:18:53;12.15;;;3.10;;
68579;SDS011;55555;52.136;5.424;2022-10-26T16:21:41;6.97;;;2.30;;
68579;SDS011;55555;52.136;5.424;2022-10-26T16:24:09;6.78;;;2.63;;
68579;SDS011;55555;52.136;5.424;2022-10-26T16:26:35;7.50;;;2.80;;
68579;SDS011;55555;52.136;5.424;2022-10-26T16:29:02;8.15;;;2.60;;
68579;SDS011;55555;52.136;5.424;2022-10-26T16:31:29;13.38;;;2.70;;
68579;SDS011;55555;52.136;5.424;2022-10-26T16:33:56;10.03;;;3.30;;
68579;SDS011;55555;52.136;5.424;2022-10-26T16:36:29;11.50;;;3.40;;
68579;SDS011;55555;52.136;5.424;2022-10-26T16:38:59;10.60;;;3.83;;
68579;SDS011;55555;52.136;5.424;2022-10-26T16:41:27;8.27;;;3.72;;
68579;SDS011;55555;52.136;5.424;2022-10-26T16:43:54;12.50;;;3.17;;
68579;SDS011;55555;52.136;5.424;2022-10-26T16:46:21;13.90;;;4.00;;
68579;SDS011;55555;52.136;5.424;2022-10-26T16:48:49;12.68;;;4.32;;
68579;SDS011;55555;52.136;5.424;2022-10-26T16:51:18;10.80;;;3.90;;
68579;SDS011;55555;52.136;5.424;2022-10-26T16:53:48;9.50;;;3.40;;
68579;SDS011;55555;52.136;5.424;2022-10-26T16:56:19;9.48;;;2.95;;
68579;SDS011;55555;52.136;5.424;2022-10-26T16:58:49;10.07;;;3.03;;
68579;SDS011;55555;52.136;5.424;2022-10-26T17:01:17;8.20;;;3.25;;
68579;SDS011;55555;52.136;5.424;2022-10-26T17:03:46;10.18;;;2.78;;
68579;SDS011;55555;52.136;5.424;2022-10-26T17:06:14;8.95;;;2.60;;
68579;SDS011;55555;52.136;5.424;2022-10-26T17:08:42;7.07;;;2.70;;
68579;SDS011;55555;52.136;5.424;2022-10-26T17:11:14;10.63;;;2.90;;
68579;SDS011;55555;52.136;5.424;2022-10-26T17:13:43;8.48;;;2.72;;
68579;SDS011;55555;52.136;5.424;2022-10-26T17:16:12;10.13;;;2.83;;
68579;SDS011;55555;52.136;5.424;2022-10-26T17:18:43;9.15;;;2.92;;
68579;SDS011;55555;52.136;5.424;2022-10-26T17:21:12;11.25;;;3.10;;
68579;SDS011;55555;52.136;5.424;2022-10-26T17:23:42;8.63;;;2.70;;
68579;SDS011;55555;52.136;5.424;2022-10-26T17:26:09;12.55;;;3.00;;
68579;SDS011;55555;52.136;5.424;2022-10-26T17:28:38;10.27;;;3.55;;
68579;SDS011;55555;52.136;5.424;2022-10-26T17:31:07;8.38;;;2.88;;
68579;SDS011;55555;52.136;5.424;2022-10-26T17:33:40;12.57;;;3.20;;
68579;SDS011;55555;52.136;5.424;2022-10-26T17:36:09;11.03;;;3.50;;
68579;SDS011;55555;52.136;5.424;2022-10-26T17:38:40;12.10;;;3.67;;
68579;SDS011;55555;52.136;5.424;2022-10-26T17:41:09;10.60;;;4.30;;
68579;SDS011;55555;52.136;5.424;2022-10-26T17:43:39;10.88;;;5.43;;
68579;SDS011;55555;52.136;5.424;2022-10-26T17:46:11;18.40;;;7.45;;
68579;SDS011;55555;52.136;5.424;2022-10-26T17:48:43;15.67;;;6.53;;
68579;SDS011;55555;52.136;5.424;2022-10-26T17:51:11;14.20;;;6.65;;
68579;SDS011;55555;52.136;5.424;2022-10-26T17:53:41;15.68;;;5.80;;
68579;SDS011;55555;52.136;5.424;2022-10-26T17:56:16;13.88;;;5.55;;
68579;SDS011;55555;52.136;5.424;2022-10-26T17:58:52;11.23;;;4.82;;
68579;SDS011;55555;52.136;5.424;2022-10-26T18:01:21;14.93;;;4.90;;
68579;SDS011;55555;52.136;5.424;2022-10-26T18:03:48;10.70;;;4.70;;
68579;SDS011;55555;52.136;5.424;2022-10-26T18:06:16;12.65;;;4.78;;